Aalborg, Denmark

9:16 PM CEST on August 28, 2016 (GMT +0200)
Rolighedsvej | | Change Station

Elev 0 ft 57.06 °N, 9.92 °E | Updated 1 minute ago

Mostly Cloudy
Mostly Cloudy
64.2 °F
Feels Like 64.2 °F
N
0.6
Wind Variable Wind from WSW
Gusts 1.9 mph

Today
High -- | Low -- °F
--% Chance of Precip.
Yesterday
High -- | Low -- °F
Precip. -- in
Pressure 29.74 in
Visibility 6.2 miles
Clouds Few 3400 ft
Mostly Cloudy 3800 ft
Dew Point 64 °F
Humidity 100%
Rainfall 0.88 in
Snow Depth Not available.
6:14 AM 8:27 PM
Waning Crescent, 14% visible
METAR EKYT 281850Z 13005KT 9999 FEW034 BKN038 19/18 Q1007
Pressure 29.74 in
Visibility 6.2 miles
Clouds Few 3400 ft
Mostly Cloudy 3800 ft
Dew Point 64 °F
Humidity 100%
Rainfall 0.88 in
Snow Depth Not available.
6:14 AM 8:27 PM
Waning Crescent, 14% visible
METAR EKYT 281850Z 13005KT 9999 FEW034 BKN038 19/18 Q1007

10-Day Weather Forecast

×

Almanac

Astronomy

Aug. 28, 2016 Rise Set
Actual Time
Civil Twilight
Nautical Twilight
Astronomical Twilight
Moon
Length of Visible Light
Length of Day
Tomorrow will be .
, % of the Moon is Illuminated

Today's Extremes

Country Highs Country Lows

Community

WunderPhotos

Upload Photos

1,935,660 photos uploaded!

WunderBlog® & News

Nearby

Air Quality

  Air Quality AQ Index Pollutant
Not available.

Snow Depth

Station Depth Elevation

Earthquake Activity

City Distance Mag. Time & Date
Minimum magnitude displayed is 2.5.

Coastal Water Temperatures

Place Temperature

Stations

Nearby Weather Stations

Station Location Temp. Windchill Dew Point Humidity Wind Precip. Elev Updated Type